Baton Rouge, LA (70819)

5:45 AM CST on March 05, 2015 (GMT -0600)
KLABATON26 | Change Station
CLOSE
Current Station
Personal Weather Station
Location: Baton Rouge, LA
Elevation: 36 ft
Nearby Weather Stations
Active Advisory: Flood Warning Active Notice: Record Report

Elev 36 ft 30.46 °N, 91.03 °W | Updated 3 seconds ago

Overcast
Overcast
38.4 °F
Feels Like 38 °F
N
3.0
Wind Variable Wind from NE
Gusts 10.0 mph

Today
High -- | Low -- °F
--% Chance of Precip.
Yesterday
High -- | Low -- °F
Precip. -- in
6:26 AM 6:05 PM
Full, 100% visible
Pressure 30.11 in
Visibility 6.0 miles
Clouds Overcast 1000 ft
Windchill 38 °F
Dew Point 36 °F
Humidity 91%
Rainfall in
Snow Depth Not available.
UV 0 out of 12
Pollen 10.30 out of 12
Air Quality Not available.
Flu Activity Not available.
SPECI KBTR 051114Z AUTO 33009G17KT 6SM -RA BR OVC010 04/02 A3011 RMK AO2 RAB1056 P0000 T00390022 TSNO

More Conditions Fewer Conditions

Pressure 30.11 in
Visibility 6.0 miles
Clouds Overcast 1000 ft
Windchill 38 °F
Dew Point 36 °F
Humidity 91%
Rainfall in
Snow Depth Not available.
UV 0 out of 12
Pollen 10.30 out of 12
Air Quality Not available.
Flu Activity Not available.
SPECI KBTR 051114Z AUTO 33009G17KT 6SM -RA BR OVC010 04/02 A3011 RMK AO2 RAB1056 P0000 T00390022 TSNO

More Conditions Fewer Conditions

10-Day Weather Forecast

Almanac

Astronomy

Mar. 05, 2015 Rise Set
Actual Time
Civil Twilight
Nautical Twilight
Astronomical Twilight
Moon
Length of Visible Light
Length of Day
Tomorrow will be .
, % of the Moon is Illuminated

Today's Extremes

State Highs State Lows

Community

WunderPhotos

Upload Photos

1,802,716 photos uploaded!

WunderBlogs® & News

Nearby

Air Quality

  Air Quality AQ Index Pollutant
Not available.

Snow Depth

Station Depth Elevation

Earthquake Activity

City Distance Mag. Time & Date
Minimum magnitude displayed is 2.5.

Coastal Water Temperatures

Place Temperature

Nearby Weather Stations

Flood Warning
Statement as of 9:17 PM CST on March 04, 2015

The Flood Warning continues for
the Amite river at Denham Springs.
* Until Thursday morning.
* At 8:00 PM Wednesday the stage was 29.5 feet.
* Minor flooding is occurring and minor flooding is forecast.
* Flood stage is 29.0 feet.
* Forecast... the river has already crested and is expected to fall
below flood stage by late tonight.
* Impact... at 29.0 feet... flooding will begin in the westernmost parts
of Denham Springs.


Lat... Lon 3050 9095 3049 9102 3044 9100 3045 9093